Time;durP1;ratioP1;P1;durP2;ratioP2;P2;SDS_P1;SDS_P2;PMS_P1;PMS_P2;Temp;Humidity;BMP_temperature;BMP_pressure;BME280_temperature;BME280_humidity;BME280_pressure;Samples;Min_cycle;Max_cycle;Signal;HPM_P1;HPM_P2
2021/03/04 00:01:26;;;;;;;26.45;19.48;;;8.90;76.50;;;;;;6150170;28;20124;-78
2021/03/04 00:04:27;;;;;;;35.58;17.67;;;8.90;76.60;;;;;;6150522;28;20584;-77
2021/03/04 00:07:28;;;;;;;24.83;17.75;;;8.90;76.80;;;;;;6150127;28;20050;-77
2021/03/04 00:10:30;;;;;;;29.88;19.45;;;8.90;76.80;;;;;;6150982;29;20130;-77
2021/03/04 00:13:31;;;;;;;26.27;17.33;;;8.90;76.80;;;;;;6150239;28;20151;-77
2021/03/04 00:16:34;;;;;;;19.77;15.65;;;8.90;77.10;;;;;;6150348;28;20051;-77
2021/03/04 00:19:35;;;;;;;31.08;18.38;;;8.90;77.10;;;;;;6150797;28;20126;-78
2021/03/04 00:22:36;;;;;;;20.23;16.02;;;8.80;77.00;;;;;;6150735;29;20406;-77
2021/03/04 00:25:38;;;;;;;26.15;17.17;;;8.80;77.10;;;;;;6153390;28;20078;-77
2021/03/04 00:28:39;;;;;;;30.67;20.77;;;8.80;76.90;;;;;;6167479;28;20059;-78
2021/03/04 00:31:42;;;;;;;28.90;19.65;;;8.80;76.80;;;;;;6128413;28;20394;-77
2021/03/04 00:34:43;;;;;;;30.80;20.65;;;8.70;76.80;;;;;;6148593;29;20050;-77
2021/03/04 00:37:44;;;;;;;28.80;20.70;;;8.70;76.80;;;;;;6146288;29;20051;-77
2021/03/04 00:40:46;;;;;;;23.40;17.65;;;8.70;76.80;;;;;;6149746;28;20126;-77
2021/03/04 00:43:47;;;;;;;23.13;17.77;;;8.60;76.90;;;;;;6149105;28;20130;-77
2021/03/04 00:46:49;;;;;;;23.33;18.27;;;8.60;77.10;;;;;;6153223;28;20079;-77
2021/03/04 00:49:51;;;;;;;25.20;19.90;;;8.50;77.00;;;;;;6148586;28;20182;-77
2021/03/04 00:52:52;;;;;;;31.08;19.55;;;8.50;77.10;;;;;;6148563;28;20040;-77
2021/03/04 00:55:53;;;;;;;28.38;18.83;;;8.50;77.10;;;;;;6148278;28;20528;-77
2021/03/04 00:58:55;;;;;;;28.33;20.80;;;8.50;77.20;;;;;;6147841;29;20135;-77
2021/03/04 01:01:57;;;;;;;28.10;21.20;;;8.50;77.00;;;;;;6148170;28;20043;-76
2021/03/04 01:04:58;;;;;;;25.02;19.00;;;8.60;77.10;;;;;;6152544;28;20074;-77
2021/03/04 01:07:59;;;;;;;28.20;19.00;;;8.60;77.00;;;;;;6152092;28;20448;-77
2021/03/04 01:11:01;;;;;;;24.27;16.67;;;8.60;77.00;;;;;;6153292;28;20134;-77
2021/03/04 01:14:03;;;;;;;25.10;18.90;;;8.60;77.10;;;;;;6151778;28;20069;-77
2021/03/04 01:17:08;;;;;;;29.00;18.05;;;8.60;77.00;;;;;;6150109;28;20051;-78
2021/03/04 01:20:12;;;;;;;34.90;23.30;;;8.60;76.80;;;;;;6152202;28;20051;-78
2021/03/04 01:23:13;;;;;;;31.95;19.20;;;8.60;76.50;;;;;;6152020;28;20070;-77
2021/03/04 01:26:15;;;;;;;24.23;19.58;;;8.60;76.50;;;;;;6152537;28;20051;-77
2021/03/04 01:29:16;;;;;;;31.05;19.33;;;8.60;76.20;;;;;;6151713;28;20572;-77
2021/03/04 01:32:18;;;;;;;26.67;18.92;;;8.60;75.90;;;;;;6152405;28;20482;-78
2021/03/04 01:35:19;;;;;;;29.67;17.70;;;8.70;75.70;;;;;;6152459;28;20509;-77
2021/03/04 01:38:21;;;;;;;28.95;17.55;;;8.70;75.80;;;;;;6152123;28;20718;-76
2021/03/04 01:41:22;;;;;;;23.20;18.40;;;8.60;75.80;;;;;;6151500;28;20126;-77
2021/03/04 01:44:24;;;;;;;27.95;19.48;;;8.60;76.00;;;;;;6151904;28;20055;-77
2021/03/04 01:47:26;;;;;;;29.35;19.67;;;8.60;75.80;;;;;;6152783;28;20090;-77
2021/03/04 01:50:28;;;;;;;21.08;16.55;;;8.60;75.60;;;;;;6152643;28;20497;-77
2021/03/04 01:53:29;;;;;;;28.58;16.70;;;8.60;75.90;;;;;;6152637;28;20147;-77
2021/03/04 01:56:30;;;;;;;27.60;17.88;;;8.60;76.10;;;;;;6152765;28;20134;-77
2021/03/04 01:59:32;;;;;;;25.80;18.98;;;8.60;76.10;;;;;;6152924;28;20043;-77
2021/03/04 02:02:34;;;;;;;25.55;19.45;;;8.60;75.60;;;;;;6153384;28;20058;-76
2021/03/04 02:05:36;;;;;;;32.70;20.80;;;8.70;75.10;;;;;;6152723;28;20130;-77
2021/03/04 02:08:44;;;;;;;36.40;20.13;;;8.70;75.00;;;;;;6152491;28;20051;-76
2021/03/04 02:11:50;;;;;;;30.83;20.17;;;8.70;74.80;;;;;;6152417;28;20561;-77
2021/03/04 02:14:54;;;;;;;24.58;17.17;;;8.70;74.90;;;;;;6151571;28;20058;-77
2021/03/04 02:18:01;;;;;;;31.98;21.52;;;8.70;74.80;;;;;;6152517;28;20071;-76
2021/03/04 02:21:30;;;;;;;24.23;18.30;;;8.70;74.40;;;;;;6152303;28;20112;-77
2021/03/04 02:24:40;;;;;;;25.40;18.73;;;8.60;74.70;;;;;;6136831;28;20043;-77
2021/03/04 02:27:43;;;;;;;31.55;23.35;;;8.60;74.70;;;;;;6151796;28;20054;-77
2021/03/04 02:30:46;;;;;;;28.10;18.35;;;8.60;74.60;;;;;;6152395;28;20054;-77
2021/03/04 02:33:50;;;;;;;25.83;19.40;;;8.50;74.70;;;;;;6151629;28;20071;-78
2021/03/04 02:36:53;;;;;;;25.45;17.10;;;8.50;74.70;;;;;;6151611;28;20522;-77
2021/03/04 02:39:55;;;;;;;31.73;20.65;;;8.40;74.70;;;;;;6151655;28;20047;-77
2021/03/04 02:42:57;;;;;;;27.60;17.77;;;8.30;74.60;;;;;;6151862;28;20106;-77
2021/03/04 02:46:00;;;;;;;26.98;14.95;;;8.30;74.30;;;;;;6151599;28;20105;-77
2021/03/04 02:49:02;;;;;;;26.38;16.38;;;8.20;74.30;;;;;;6151405;28;20039;-76
2021/03/04 02:52:05;;;;;;;28.60;15.48;;;8.20;74.30;;;;;;6151628;28;20154;-77
2021/03/04 02:55:08;;;;;;;32.58;19.15;;;8.20;73.80;;;;;;6151929;28;20055;-76
2021/03/04 02:58:12;;;;;;;25.35;16.35;;;8.30;73.50;;;;;;6151590;28;20134;-76
2021/03/04 03:01:14;;;;;;;23.08;16.13;;;8.30;73.00;;;;;;6151245;28;20509;-77
2021/03/04 03:04:19;;;;;;;24.15;16.05;;;8.30;72.60;;;;;;6151046;28;20151;-77
2021/03/04 03:07:22;;;;;;;21.23;14.98;;;8.30;72.50;;;;;;6151155;28;20138;-77
2021/03/04 03:10:24;;;;;;;19.88;14.57;;;8.40;72.20;;;;;;6151445;28;20069;-77
2021/03/04 03:13:28;;;;;;;20.52;15.18;;;8.30;71.90;;;;;;6151274;28;20058;-76
2021/03/04 03:16:29;;;;;;;17.90;13.73;;;8.30;71.80;;;;;;6150826;28;20130;-77
2021/03/04 03:19:32;;;;;;;20.67;14.07;;;8.30;71.90;;;;;;6150580;28;20505;-77
2021/03/04 03:22:33;;;;;;;20.08;14.63;;;8.30;71.90;;;;;;6151452;28;20141;-77
2021/03/04 03:25:35;;;;;;;20.92;13.52;;;8.30;72.00;;;;;;6150150;28;20047;-77
2021/03/04 03:28:39;;;;;;;21.50;14.25;;;8.30;71.70;;;;;;6150217;28;20130;-77
2021/03/04 03:31:42;;;;;;;26.85;15.55;;;8.20;71.80;;;;;;6150766;28;20051;-77
2021/03/04 03:34:45;;;;;;;21.55;14.07;;;8.10;72.10;;;;;;6150596;28;20055;-77
2021/03/04 03:37:47;;;;;;;17.90;12.32;;;8.00;72.40;;;;;;6150019;28;20047;-77
2021/03/04 03:40:52;;;;;;;18.83;13.25;;;8.00;72.20;;;;;;6150233;28;20051;-77
2021/03/04 03:43:54;;;;;;;16.95;12.40;;;8.00;72.30;;;;;;6150252;28;20445;-77
2021/03/04 03:46:56;;;;;;;20.42;12.13;;;7.90;72.40;;;;;;6150875;28;20138;-77
2021/03/04 03:49:58;;;;;;;25.00;14.38;;;7.90;72.20;;;;;;6149635;28;20130;-77
2021/03/04 03:53:00;;;;;;;16.92;12.35;;;7.90;72.30;;;;;;6150029;28;20058;-77
2021/03/04 03:56:02;;;;;;;18.15;11.82;;;7.90;72.10;;;;;;6149925;28;20057;-77
2021/03/04 03:59:06;;;;;;;17.50;10.88;;;7.90;72.10;;;;;;6150138;28;20047;-77
2021/03/04 04:02:09;;;;;;;15.63;12.40;;;7.80;72.10;;;;;;6150100;28;20051;-77
2021/03/04 04:05:11;;;;;;;16.17;11.88;;;7.80;72.30;;;;;;6149577;28;20433;-77
2021/03/04 04:08:13;;;;;;;19.15;12.52;;;7.80;72.50;;;;;;6149583;28;20126;-77
2021/03/04 04:11:15;;;;;;;18.17;12.63;;;7.80;72.30;;;;;;6149744;28;20047;-77
2021/03/04 04:14:17;;;;;;;16.50;10.85;;;7.80;72.20;;;;;;6150075;28;20138;-77
2021/03/04 04:17:20;;;;;;;19.42;12.68;;;7.80;71.80;;;;;;6149491;28;20190;-77
2021/03/04 04:20:22;;;;;;;16.27;11.13;;;7.80;71.60;;;;;;6149523;28;20055;-77
2021/03/04 04:23:24;;;;;;;16.98;10.70;;;7.90;71.70;;;;;;6149696;28;20047;-76
2021/03/04 04:26:25;;;;;;;19.30;11.70;;;7.90;72.30;;;;;;6149922;28;20141;-77
2021/03/04 04:29:27;;;;;;;17.25;12.05;;;7.90;71.80;;;;;;6149353;28;20055;-77
2021/03/04 04:32:28;;;;;;;18.45;11.65;;;7.90;72.00;;;;;;6149813;28;20178;-77
2021/03/04 04:35:30;;;;;;;19.55;13.95;;;7.90;71.60;;;;;;6149331;28;20053;-77
2021/03/04 04:38:31;;;;;;;20.25;13.40;;;7.90;72.20;;;;;;6152875;28;20051;-77
2021/03/04 04:41:32;;;;;;;19.00;12.65;;;7.90;71.60;;;;;;6154319;28;20133;-77
2021/03/04 04:44:35;;;;;;;19.85;12.80;;;7.90;71.60;;;;;;6154389;28;20062;-77
2021/03/04 04:47:36;;;;;;;16.35;12.38;;;7.90;71.40;;;;;;6154353;28;20692;-77
2021/03/04 04:50:37;;;;;;;15.32;11.30;;;7.90;71.40;;;;;;6154506;28;20047;-76
2021/03/04 04:53:40;;;;;;;16.25;11.80;;;7.90;71.50;;;;;;6154098;28;20062;-77
2021/03/04 04:56:41;;;;;;;17.15;11.70;;;7.90;71.70;;;;;;6154182;28;20055;-77
2021/03/04 04:59:45;;;;;;;17.90;13.10;;;7.90;71.70;;;;;;6153974;28;20054;-77
2021/03/04 05:02:46;;;;;;;15.73;10.20;;;7.90;71.80;;;;;;6155219;28;20063;-76
2021/03/04 05:05:48;;;;;;;14.25;10.75;;;7.90;71.70;;;;;;6154233;28;20425;-77
2021/03/04 05:08:49;;;;;;;14.27;10.55;;;7.80;71.70;;;;;;6153764;28;20049;-77
2021/03/04 05:11:51;;;;;;;16.35;9.07;;;7.80;71.90;;;;;;6154254;28;20047;-77
2021/03/04 05:14:53;;;;;;;16.77;9.95;;;7.80;71.90;;;;;;6153920;28;20047;-76
2021/03/04 05:17:54;;;;;;;15.85;8.05;;;7.80;72.30;;;;;;6153686;28;20438;-77
2021/03/04 05:20:56;;;;;;;12.85;8.75;;;7.80;72.10;;;;;;6153568;28;20050;-76
2021/03/04 05:23:57;;;;;;;13.02;10.00;;;7.80;72.00;;;;;;6154500;28;20418;-77
2021/03/04 05:26:58;;;;;;;14.75;10.40;;;7.80;72.10;;;;;;6155246;28;20130;-77
2021/03/04 05:30:01;;;;;;;21.48;10.60;;;7.70;72.20;;;;;;6153119;28;20043;-77
2021/03/04 05:33:02;;;;;;;17.98;12.30;;;7.70;72.30;;;;;;6153702;28;20051;-78
2021/03/04 05:36:04;;;;;;;20.88;13.52;;;7.70;72.70;;;;;;6162407;28;20124;-77
2021/03/04 05:39:06;;;;;;;16.00;11.07;;;7.70;72.80;;;;;;6174609;28;20129;-77
2021/03/04 05:42:09;;;;;;;14.70;12.02;;;7.70;72.90;;;;;;6178128;28;20062;-78
2021/03/04 05:45:14;;;;;;;14.75;11.15;;;7.70;73.00;;;;;;6177318;28;20149;-78
2021/03/04 05:48:20;;;;;;;21.65;11.15;;;7.70;72.70;;;;;;6177438;28;20151;-78
2021/03/04 05:51:25;;;;;;;15.40;11.10;;;7.70;72.60;;;;;;6177976;28;20161;-78
2021/03/04 05:54:28;;;;;;;16.30;11.07;;;7.70;72.50;;;;;;6178409;28;20057;-78
2021/03/04 05:57:30;;;;;;;17.85;11.25;;;7.70;72.30;;;;;;6177246;28;20073;-78
2021/03/04 06:00:32;;;;;;;17.67;11.77;;;7.80;72.30;;;;;;6177200;28;20057;-78
2021/03/04 06:03:34;;;;;;;19.92;11.32;;;7.80;72.40;;;;;;6177661;28;20547;-79
2021/03/04 06:06:35;;;;;;;20.17;12.85;;;7.80;72.30;;;;;;6177277;28;20046;-77
2021/03/04 06:09:36;;;;;;;16.50;12.75;;;7.70;72.30;;;;;;6176119;28;20130;-76
2021/03/04 06:12:38;;;;;;;17.40;11.00;;;7.80;72.30;;;;;;6176300;28;20477;-77
2021/03/04 06:15:40;;;;;;;17.85;13.30;;;7.80;72.40;;;;;;6176053;28;20570;-77
2021/03/04 06:18:43;;;;;;;16.98;11.25;;;7.80;72.60;;;;;;6176620;28;20181;-77
2021/03/04 06:21:44;;;;;;;13.52;11.95;;;7.80;72.60;;;;;;6176168;28;20461;-76
2021/03/04 06:24:50;;;;;;;14.60;11.10;;;7.70;72.80;;;;;;6176418;28;20117;-77
2021/03/04 06:27:52;;;;;;;15.73;11.45;;;7.70;72.80;;;;;;6176212;28;20047;-77
2021/03/04 06:30:54;;;;;;;20.73;11.82;;;7.70;73.00;;;;;;6175991;28;20122;-77
2021/03/04 06:33:55;;;;;;;24.15;14.60;;;7.70;73.30;;;;;;6175820;28;20134;-76
2021/03/04 06:36:59;;;;;;;22.60;13.60;;;7.60;73.50;;;;;;6175667;28;20512;-76
2021/03/04 06:40:01;;;;;;;15.27;12.77;;;7.70;73.80;;;;;;6175774;28;20051;-76
2021/03/04 06:43:02;;;;;;;20.02;12.93;;;7.80;74.00;;;;;;6176037;28;20599;-77
2021/03/04 06:46:06;;;;;;;19.70;14.45;;;7.80;74.00;;;;;;6175306;28;20129;-77
2021/03/04 06:49:08;;;;;;;14.32;11.80;;;7.80;74.00;;;;;;6175580;28;20070;-77
2021/03/04 06:52:09;;;;;;;17.58;12.75;;;7.90;74.00;;;;;;6175633;28;20047;-77
2021/03/04 06:55:12;;;;;;;19.17;13.35;;;7.90;74.00;;;;;;6175832;28;20125;-76
2021/03/04 06:58:13;;;;;;;15.10;12.77;;;8.00;73.80;;;;;;6175408;28;20509;-77
2021/03/04 07:01:16;;;;;;;19.75;10.90;;;8.10;73.70;;;;;;6174740;28;20043;-77
2021/03/04 07:04:18;;;;;;;17.30;11.80;;;8.10;72.80;;;;;;6157457;28;20153;-77
2021/03/04 07:07:22;;;;;;;17.50;12.90;;;8.20;72.20;;;;;;6151795;28;20059;-77
2021/03/04 07:10:26;;;;;;;20.58;12.75;;;8.20;72.10;;;;;;6152079;29;20499;-76
2021/03/04 07:13:28;;;;;;;19.25;12.23;;;8.30;71.90;;;;;;6151926;28;20047;-76
2021/03/04 07:16:33;;;;;;;22.15;12.57;;;8.30;71.40;;;;;;6151564;28;20051;-76
2021/03/04 07:19:36;;;;;;;17.13;10.60;;;8.40;71.10;;;;;;6150917;28;20050;-76
2021/03/04 07:22:38;;;;;;;12.85;10.38;;;8.40;70.40;;;;;;6151569;29;20066;-77
2021/03/04 07:25:41;;;;;;;20.00;10.82;;;8.30;70.10;;;;;;6150322;28;20047;-76
2021/03/04 07:28:44;;;;;;;15.00;11.60;;;8.40;70.30;;;;;;6150290;28;20055;-77
2021/03/04 07:31:47;;;;;;;19.73;11.73;;;8.40;70.00;;;;;;6150768;28;20126;-77
2021/03/04 07:34:48;;;;;;;15.45;11.27;;;8.40;70.00;;;;;;6151080;28;20141;-76
2021/03/04 07:37:50;;;;;;;14.25;11.35;;;8.70;69.50;;;;;;6150567;28;20126;-77
2021/03/04 07:41:05;;;;;;;13.55;10.55;;;9.00;68.50;;;;;;6150341;28;20259;-77
2021/03/04 07:44:08;;;;;;;13.30;9.35;;;9.30;67.30;;;;;;6150301;28;20075;-77
2021/03/04 07:47:11;;;;;;;13.23;10.82;;;9.50;66.40;;;;;;6150726;28;20143;-77
2021/03/04 07:50:16;;;;;;;15.10;9.48;;;9.50;65.80;;;;;;6150920;28;20054;-76
2021/03/04 07:53:18;;;;;;;12.68;9.13;;;9.40;65.90;;;;;;6150698;28;20058;-76
2021/03/04 07:56:27;;;;;;;14.48;10.02;;;9.30;66.10;;;;;;6150309;28;20050;-76
2021/03/04 07:59:28;;;;;;;17.08;11.30;;;9.20;67.10;;;;;;6150332;28;20058;-76
2021/03/04 08:02:32;;;;;;;18.92;9.60;;;9.30;66.80;;;;;;6150752;29;20483;-75
2021/03/04 08:05:35;;;;;;;13.88;9.50;;;9.40;66.70;;;;;;6149924;28;20051;-76
2021/03/04 08:08:38;;;;;;;11.85;9.82;;;9.50;66.20;;;;;;6150074;28;20047;-76
2021/03/04 08:11:40;;;;;;;15.07;10.48;;;9.50;65.70;;;;;;6149673;28;20410;-76
2021/03/04 08:14:53;;;;;;;18.00;12.63;;;9.40;65.70;;;;;;6150295;28;20134;-76
2021/03/04 08:17:55;;;;;;;20.80;11.05;;;9.30;65.80;;;;;;6149823;28;20051;-77
2021/03/04 08:21:04;;;;;;;18.45;11.02;;;9.30;66.20;;;;;;6150419;28;20054;-76
2021/03/04 08:24:06;;;;;;;11.15;8.77;;;9.20;66.30;;;;;;6151568;28;20047;-76
2021/03/04 08:27:08;;;;;;;15.95;10.00;;;9.20;66.40;;;;;;6151525;28;20047;-77
2021/03/04 08:30:10;;;;;;;23.52;12.02;;;9.20;67.00;;;;;;6151671;29;20075;-76
2021/03/04 08:33:13;;;;;;;17.30;10.57;;;9.40;66.40;;;;;;6150671;28;20131;-77
2021/03/04 08:36:14;;;;;;;19.58;9.75;;;9.80;65.60;;;;;;6150407;28;20079;-77
2021/03/04 08:39:16;;;;;;;22.55;11.77;;;10.20;64.40;;;;;;6150701;28;20490;-77
2021/03/04 08:42:17;;;;;;;16.33;10.65;;;10.60;63.40;;;;;;6151929;29;20146;-77
2021/03/04 08:45:30;;;;;;;15.85;10.73;;;10.90;62.20;;;;;;6149441;28;20098;-77
2021/03/04 08:48:32;;;;;;;16.38;11.90;;;11.30;61.30;;;;;;6149489;28;20107;-77
2021/03/04 08:51:42;;;;;;;19.58;11.30;;;11.70;60.30;;;;;;6149330;28;20051;-77
2021/03/04 08:54:49;;;;;;;15.35;11.40;;;12.10;59.80;;;;;;6150917;28;20081;-77
2021/03/04 08:57:50;;;;;;;17.52;11.05;;;12.60;58.50;;;;;;6149490;28;20410;-76
2021/03/04 09:00:54;;;;;;;18.33;10.85;;;12.90;57.30;;;;;;6149003;28;20062;-77
2021/03/04 09:03:56;;;;;;;16.63;9.23;;;13.20;55.10;;;;;;6150042;28;20471;-76
2021/03/04 09:06:58;;;;;;;19.77;11.18;;;13.40;54.80;;;;;;6150255;28;20094;-77
2021/03/04 09:10:01;;;;;;;13.75;9.50;;;13.80;52.90;;;;;;6149035;28;20043;-76
2021/03/04 09:13:02;;;;;;;16.50;10.50;;;14.00;50.60;;;;;;6149539;28;20074;-77
2021/03/04 09:16:07;;;;;;;14.23;9.25;;;14.20;49.90;;;;;;6149062;28;20078;-77
2021/03/04 09:19:10;;;;;;;20.70;10.77;;;14.30;49.30;;;;;;6148971;28;20054;-77
2021/03/04 09:22:12;;;;;;;15.05;10.93;;;14.40;48.60;;;;;;6149224;29;20057;-76
2021/03/04 09:25:17;;;;;;;18.17;9.02;;;14.50;48.80;;;;;;6152632;28;20051;-77
2021/03/04 09:28:19;;;;;;;14.02;9.05;;;14.80;48.10;;;;;;6153696;28;20047;-76
2021/03/04 09:31:22;;;;;;;14.80;9.13;;;14.90;47.40;;;;;;6152972;28;20497;-76
2021/03/04 09:34:32;;;;;;;20.38;9.88;;;15.10;46.80;;;;;;6153944;28;20145;-77
2021/03/04 09:37:33;;;;;;;18.80;10.93;;;15.30;45.60;;;;;;6153375;28;20055;-76
2021/03/04 09:40:35;;;;;;;12.18;8.32;;;15.40;45.30;;;;;;6152753;28;20509;-76
2021/03/04 09:43:40;;;;;;;17.05;10.73;;;15.40;45.30;;;;;;6153052;28;20055;-76
2021/03/04 09:46:43;;;;;;;15.20;10.20;;;15.50;44.80;;;;;;6153511;28;20059;-76
2021/03/04 09:49:45;;;;;;;16.02;9.05;;;15.60;44.30;;;;;;6152459;28;20099;-77
2021/03/04 09:52:58;;;;;;;13.85;8.88;;;15.90;44.20;;;;;;6152889;28;20071;-76
2021/03/04 09:56:04;;;;;;;16.63;9.25;;;16.40;43.40;;;;;;6152600;28;20043;-77
2021/03/04 09:59:06;;;;;;;13.48;8.85;;;16.80;41.60;;;;;;6152994;28;20047;-77
2021/03/04 10:02:07;;;;;;;15.77;8.20;;;17.30;41.20;;;;;;6153354;28;20072;-76
2021/03/04 10:05:15;;;;;;;13.45;7.70;;;17.80;40.80;;;;;;6152650;28;20051;-76
2021/03/04 10:08:18;;;;;;;13.85;7.72;;;18.00;40.40;;;;;;6152474;28;20130;-77
2021/03/04 10:11:24;;;;;;;13.55;7.05;;;17.90;39.50;;;;;;6152088;28;20483;-76
2021/03/04 10:14:26;;;;;;;15.45;8.82;;;17.60;39.60;;;;;;6152837;28;20141;-76
2021/03/04 10:17:27;;;;;;;25.02;9.95;;;17.20;40.20;;;;;;6128837;28;20058;-77
2021/03/04 10:20:29;;;;;;;19.17;10.38;;;16.90;41.00;;;;;;6153160;28;20085;-76
2021/03/04 10:23:32;;;;;;;15.45;9.38;;;16.80;41.70;;;;;;6149535;28;20047;-75
2021/03/04 10:26:33;;;;;;;19.00;8.55;;;16.50;41.90;;;;;;6136938;29;20176;-76
2021/03/04 10:29:37;;;;;;;11.20;7.47;;;16.70;41.60;;;;;;6142855;28;20065;-77
2021/03/04 10:32:39;;;;;;;22.27;8.45;;;16.80;41.80;;;;;;6148912;28;20051;-75
2021/03/04 10:35:41;;;;;;;14.52;8.02;;;17.00;41.90;;;;;;6131023;28;20219;-76
2021/03/04 10:38:42;;;;;;;10.88;7.22;;;17.20;41.40;;;;;;6143169;29;20051;-75
2021/03/04 10:41:44;;;;;;;25.58;9.48;;;17.40;41.70;;;;;;6145001;28;20144;-76
2021/03/04 10:44:46;;;;;;;15.32;8.25;;;17.60;41.10;;;;;;6132028;28;20094;-75
2021/03/04 10:47:48;;;;;;;12.10;7.57;;;17.70;40.40;;;;;;6137605;28;20109;-75
2021/03/04 10:50:50;;;;;;;16.88;7.95;;;17.60;40.30;;;;;;6154397;28;20433;-76
2021/03/04 10:53:51;;;;;;;10.43;7.30;;;17.50;40.80;;;;;;6149902;28;20047;-77
2021/03/04 10:56:53;;;;;;;24.77;9.07;;;17.30;40.50;;;;;;6143482;28;20437;-75
2021/03/04 10:59:54;;;;;;;16.63;8.82;;;16.80;41.80;;;;;;6136834;28;20086;-76
2021/03/04 11:02:55;;;;;;;13.65;7.20;;;16.40;42.90;;;;;;6145336;29;20051;-76
2021/03/04 11:05:57;;;;;;;20.42;9.27;;;16.10;43.30;;;;;;6141885;28;20063;-76
2021/03/04 11:08:59;;;;;;;13.48;7.55;;;16.10;44.10;;;;;;6144339;28;20070;-76
2021/03/04 11:12:01;;;;;;;11.25;8.02;;;16.00;44.00;;;;;;6146208;28;20051;-76
2021/03/04 11:15:02;;;;;;;14.00;8.48;;;16.00;44.10;;;;;;6146383;28;20476;-76
2021/03/04 11:18:04;;;;;;;19.73;9.23;;;16.20;44.20;;;;;;6139392;28;20062;-76
2021/03/04 11:21:06;;;;;;;11.13;8.63;;;16.60;43.70;;;;;;6142144;28;20047;-76
2021/03/04 11:24:08;;;;;;;12.25;8.23;;;17.00;42.80;;;;;;6144646;28;20051;-77
2021/03/04 11:27:09;;;;;;;18.25;7.57;;;17.10;42.50;;;;;;6143776;28;20098;-78
2021/03/04 11:30:11;;;;;;;15.73;8.02;;;17.00;43.00;;;;;;6145285;28;20054;-77
2021/03/04 11:33:13;;;;;;;19.50;9.15;;;17.00;43.10;;;;;;6139184;28;20063;-77
2021/03/04 11:36:15;;;;;;;15.18;8.30;;;16.90;42.70;;;;;;6147648;28;20047;-77
2021/03/04 11:39:16;;;;;;;12.98;7.45;;;16.90;43.10;;;;;;6136833;28;20078;-77
2021/03/04 11:42:18;;;;;;;17.52;8.70;;;17.00;43.00;;;;;;6150211;28;20086;-77
2021/03/04 11:45:20;;;;;;;13.18;7.05;;;17.00;42.60;;;;;;6144194;28;20134;-76
2021/03/04 11:48:21;;;;;;;10.60;7.93;;;16.90;42.70;;;;;;6133592;28;20055;-77
2021/03/04 11:51:23;;;;;;;12.43;8.15;;;16.80;43.10;;;;;;6141040;28;20044;-77
2021/03/04 11:54:25;;;;;;;12.45;8.88;;;16.80;43.20;;;;;;6133856;29;20051;-76
2021/03/04 11:57:27;;;;;;;12.98;7.75;;;16.80;42.70;;;;;;6143508;28;20075;-77
2021/03/04 12:00:28;;;;;;;17.35;7.30;;;16.60;43.10;;;;;;6148595;28;20071;-76
2021/03/04 12:03:30;;;;;;;11.02;6.88;;;16.70;42.70;;;;;;6135556;28;20052;-77
2021/03/04 12:06:33;;;;;;;13.95;7.47;;;16.80;43.00;;;;;;6141645;29;20122;-76
2021/03/04 12:09:34;;;;;;;14.00;7.75;;;17.00;42.00;;;;;;6134367;28;20040;-77
2021/03/04 12:12:36;;;;;;;13.10;7.60;;;17.10;41.60;;;;;;6135606;28;20043;-77
2021/03/04 12:15:39;;;;;;;13.02;8.20;;;17.30;41.10;;;;;;6138448;28;20808;-76
2021/03/04 12:18:40;;;;;;;11.15;5.90;;;17.50;41.10;;;;;;6130851;28;20070;-77
2021/03/04 12:21:43;;;;;;;14.23;7.63;;;17.90;40.50;;;;;;6133153;28;20050;-77
2021/03/04 12:24:44;;;;;;;17.40;8.45;;;18.30;39.70;;;;;;6154358;23;20048;-77
2021/03/04 12:27:46;;;;;;;15.18;8.15;;;18.50;38.80;;;;;;6174975;28;20555;-81
2021/03/04 12:30:47;;;;;;;15.80;7.30;;;18.60;38.80;;;;;;6176868;28;20439;-81
2021/03/04 12:33:49;;;;;;;15.32;8.13;;;18.50;39.00;;;;;;6176292;28;20054;-80
2021/03/04 12:36:51;;;;;;;14.32;7.45;;;18.50;39.00;;;;;;6176486;28;20042;-82
2021/03/04 12:39:52;;;;;;;18.30;8.27;;;18.50;38.90;;;;;;6170206;28;20059;-82
2021/03/04 12:42:54;;;;;;;15.65;8.75;;;18.40;38.90;;;;;;6170607;28;20057;-81
2021/03/04 12:45:56;;;;;;;13.35;7.43;;;18.50;39.10;;;;;;6169060;28;20105;-81
2021/03/04 12:48:57;;;;;;;12.02;7.30;;;18.60;38.50;;;;;;6152622;28;20087;-81
2021/03/04 12:51:59;;;;;;;19.10;9.68;;;18.70;38.30;;;;;;6152213;28;20055;-80
2021/03/04 12:55:01;;;;;;;18.98;8.82;;;18.90;38.00;;;;;;6150647;29;20079;-81
2021/03/04 12:58:02;;;;;;;12.57;7.20;;;19.10;38.60;;;;;;6146714;28;20051;-81
2021/03/04 13:01:04;;;;;;;26.70;8.27;;;19.40;38.20;;;;;;6151283;28;20071;-81
2021/03/04 13:04:05;;;;;;;10.25;8.50;;;19.70;37.00;;;;;;6143505;28;20051;-80
2021/03/04 13:07:08;;;;;;;13.38;5.82;;;20.00;37.00;;;;;;6151096;28;20051;-81
2021/03/04 13:10:10;;;;;;;14.23;6.75;;;20.00;35.80;;;;;;6156573;28;20048;-80
2021/03/04 13:13:11;;;;;;;11.07;5.97;;;19.80;35.90;;;;;;6157365;28;20142;-82
2021/03/04 13:16:13;;;;;;;14.95;6.22;;;19.40;36.20;;;;;;6151989;28;20091;-79
2021/03/04 13:19:14;;;;;;;12.23;6.30;;;19.00;36.90;;;;;;6172406;28;20075;-82
2021/03/04 13:22:16;;;;;;;21.02;14.68;;;18.70;37.80;;;;;;6171726;28;20079;-82
2021/03/04 13:25:18;;;;;;;32.65;25.63;;;18.50;38.70;;;;;;6153642;28;20055;-81
2021/03/04 13:28:19;;;;;;;32.28;25.20;;;18.50;40.10;;;;;;6147878;28;20138;-80
2021/03/04 13:31:20;;;;;;;33.15;26.17;;;18.50;40.40;;;;;;6151010;28;20066;-81
2021/03/04 13:34:23;;;;;;;28.88;21.73;;;18.40;40.80;;;;;;6154857;28;20058;-79
2021/03/04 13:37:26;;;;;;;37.08;24.25;;;18.30;41.40;;;;;;6168255;28;20487;-82
2021/03/04 13:40:27;;;;;;;15.27;10.88;;;18.30;41.10;;;;;;6174365;28;20053;-81
2021/03/04 13:43:29;;;;;;;18.63;10.05;;;18.10;41.70;;;;;;6173701;28;20102;-79
2021/03/04 13:46:30;;;;;;;19.08;10.93;;;17.90;41.60;;;;;;6172082;28;20066;-81
2021/03/04 13:49:31;;;;;;;25.02;8.13;;;17.60;42.30;;;;;;6159574;28;20055;-81
2021/03/04 13:52:33;;;;;;;12.32;6.95;;;17.50;43.20;;;;;;6155420;28;20046;-79
2021/03/04 13:55:35;;;;;;;13.57;7.38;;;17.30;42.20;;;;;;6154017;28;20051;-80
2021/03/04 13:58:36;;;;;;;17.17;8.15;;;17.20;42.80;;;;;;6182482;28;20501;-78
2021/03/04 14:01:37;;;;;;;14.98;8.18;;;17.00;42.90;;;;;;6159508;28;20067;-78
2021/03/04 14:04:39;;;;;;;12.65;7.65;;;16.80;43.50;;;;;;6150164;28;20059;-80
2021/03/04 14:07:41;;;;;;;18.45;7.93;;;16.70;44.20;;;;;;6155093;28;20133;-81
2021/03/04 14:10:43;;;;;;;16.55;6.72;;;16.50;43.70;;;;;;6152418;29;20039;-79
2021/03/04 14:13:45;;;;;;;13.23;6.57;;;16.50;44.30;;;;;;6172287;28;20066;-80
2021/03/04 14:16:46;;;;;;;15.82;4.85;;;16.40;44.10;;;;;;6182217;28;20105;-80
2021/03/04 14:19:48;;;;;;;14.05;4.72;;;16.30;42.50;;;;;;6181240;28;20074;-79
2021/03/04 14:22:50;;;;;;;12.57;5.78;;;16.10;41.50;;;;;;6179534;28;20053;-80
2021/03/04 14:25:51;;;;;;;16.05;6.03;;;15.90;42.30;;;;;;6180366;28;20066;-81
2021/03/04 14:28:53;;;;;;;10.30;4.32;;;15.80;45.60;;;;;;6178837;28;20078;-80
2021/03/04 14:31:54;;;;;;;14.75;8.82;;;15.50;47.10;;;;;;6176116;28;20055;-80
2021/03/04 14:34:58;;;;;;;14.57;5.15;;;15.30;48.50;;;;;;6179338;28;20042;-80
2021/03/04 14:38:00;;;;;;;21.30;7.82;;;15.10;49.70;;;;;;6178592;28;20092;-81
2021/03/04 14:41:02;;;;;;;15.00;6.85;;;15.00;50.30;;;;;;6188434;28;20111;-79
2021/03/04 14:44:04;;;;;;;18.13;8.23;;;14.80;50.80;;;;;;6181996;28;20055;-80
2021/03/04 14:47:05;;;;;;;14.52;6.28;;;14.70;51.80;;;;;;6187463;28;20151;-83
2021/03/04 14:50:08;;;;;;;13.30;8.52;;;14.60;53.00;;;;;;6192225;28;20042;-78
2021/03/04 14:53:11;;;;;;;18.05;7.43;;;14.50;53.60;;;;;;6193920;28;20085;-79
2021/03/04 14:56:13;;;;;;;13.20;8.60;;;14.40;54.10;;;;;;6175848;28;20082;-82
2021/03/04 14:59:15;;;;;;;18.58;15.30;;;14.30;54.40;;;;;;6150538;28;20051;-79
2021/03/04 15:02:17;;;;;;;15.48;7.57;;;14.30;54.80;;;;;;6153952;29;20052;-80
2021/03/04 15:05:19;;;;;;;16.40;10.65;;;14.30;55.20;;;;;;6153293;28;20040;-80
2021/03/04 15:08:21;;;;;;;19.13;9.45;;;14.20;55.50;;;;;;6147153;28;20078;-79
2021/03/04 15:11:22;;;;;;;20.65;13.32;;;14.20;55.80;;;;;;6151418;28;20126;-80
2021/03/04 15:14:24;;;;;;;15.10;7.82;;;14.30;55.50;;;;;;6152854;28;20071;-81
2021/03/04 15:17:25;;;;;;;13.57;7.95;;;14.40;55.70;;;;;;6155237;28;20093;-80
2021/03/04 15:20:27;;;;;;;15.30;10.55;;;14.50;55.20;;;;;;6161753;28;20035;-80
2021/03/04 15:23:29;;;;;;;15.30;8.45;;;14.60;54.90;;;;;;6179829;28;20074;-80
2021/03/04 15:26:30;;;;;;;15.25;9.07;;;14.70;55.30;;;;;;6156091;28;632410;-80
2021/03/04 15:29:32;;;;;;;20.20;9.05;;;14.70;55.10;;;;;;6157934;28;20066;-80
2021/03/04 15:32:34;;;;;;;19.08;7.68;;;14.70;55.10;;;;;;6158010;28;20047;-78
2021/03/04 15:35:36;;;;;;;16.30;8.70;;;14.60;54.90;;;;;;6162184;28;20085;-80